EDDMEGKK

Guest
Details From EDDM - Muenchen Franz-Josef Strauss
To EGKK - London Gatwick
Flight Number -
Tags generated
Created
Modified
Stats Distance 501 nm / 929 km
Max Altitude 34,000 ft / 10,363 m
Waypoints 7
Social Downloads 1
Likes 0
Share VATSIM

Download

Looking for another format? Having issues loading an existing format? Contact us
Advertisement - Login to hide

Notes

Basic altitude profile: - Ascent Rate: 4000ft/min - Ascent Speed: 157kts - Cruise Altitude: 32000ft - Cruise Speed: 290kts - Descent Rate: 4000ft/min - Descent Speed: 157kts Options: - Use NATs: yes - Use PACOTS: yes - Use low airways: yes - Use high airways: yes

Route

EDDM LBU Z729 KRH UM150 PITES M150 DIK UM150 KOK EGKK

ID Type Via Altitude Latitude Longitude Leg Dist Tot Dist Heading (true) Name
O EDDM APT - 0 ft / 0 m 48.35379˚ 11.78612˚ - 0 nm - Muenchen Franz-Josef Strauss
LBU VOR - 34,000 ft / 10,363 m 48.91298˚ 9.34023˚ 102 nm 102 nm 290° / 288° LUBURG VOR-DME
KRH VOR Z729 (AWY-LO) 34,000 ft / 10,363 m 48.99294˚ 8.58424˚ 30 nm 132 nm 279° / 279° KARLSRUHE VOR-DME
PITES FIX UM150 (AWY-HI) 34,000 ft / 10,363 m 49.72861˚ 6.51944˚ 92 nm 224 nm 299° / 298° -
DIK NDB M150 (AWY-LO) 34,000 ft / 10,363 m 49.86139˚ 6.12972˚ 17 nm 242 nm 298° / 298° DIEKIRCH NDB
KOK VOR UM150 (AWY-HI) 22,900 ft / 6,980 m 51.09472˚ 2.65167˚ 152 nm 394 nm 300° / 298° KOKSY VORTAC
O EGKK APT - 0 ft / 0 m 51.14875˚ -0.19247˚ 107 nm 501 nm 273° / 271° London Gatwick

Altitude Profile

Advertisement - Login to hide

Weather


0- 5 10 15 20 25 30 35+ Temperature / ° C

Clouds and Precipitation
Forecast for 2018-07-16 12:00 UTC. Updated 4 hours ago

Ground ~20,000 ft ~40,000 ft Winds

EDDM

Details ICAO EDDM (MUC)
Name Muenchen Franz-Josef Strauss
Region Germany - Civil
Timezone Europe/Berlin (UTC+2.0)
Stats Elevation 1,487 ft / 453 m (AMSL)
Location 48.353786° 11.786117°
Runways 2
Magnetic Variation 3.233° E

METAR

EDDM 161320Z 33005KT 300V030 9999 FEW048 SCT260 24/11 Q1013 NOSIG

Decode

TAF

TAF EDDM 161100Z 1612/1718 33004KT 9999 FEW020 SCT035 PROB30 TEMPO 1613/1616 03009KT -TSRA SCT020 BKN030CB BECMG 1707/1709 27010KT PROB30 TEMPO 1713/1716 29015G25KT TSRA BKN040CB

Decode

Departure Runways

ID Width Length Bearing (true) Bearing (mag) Surface Threshold Offset Overrun Length
08L 197 ft / 60 m 13,086 ft / 3,989 m 83.38° 80.15° Concrete 0 ft / 0 m 0 ft / 0 m
08R 197 ft / 60 m 13,086 ft / 3,989 m 83.37° 80.14° Concrete 0 ft / 0 m 0 ft / 0 m
26L 197 ft / 60 m 13,086 ft / 3,989 m 263.41° 260.18° Concrete 0 ft / 0 m 0 ft / 0 m
26R 197 ft / 60 m 13,086 ft / 3,989 m 263.42° 260.19° Concrete 0 ft / 0 m 0 ft / 0 m

EGKK

Details ICAO EGKK (LGW)
Name London Gatwick
Region United Kingdom
Timezone Europe/London (UTC+1.0)
Stats Elevation 196 ft / 60 m (AMSL)
Location 51.148753° -0.192472°
Runways 2
Magnetic Variation 0.347° W

METAR

EGKK 161320Z VRB05KT 9999 FEW049 27/09 Q1013

Decode

TAF

TAF EGKK 161101Z 1612/1718 26006KT CAVOK= TAF EGLL 161051Z 1612/1718 27006KT CAVOK

Decode

Destination Runways

ID Width Length Bearing (true) Bearing (mag) Surface Threshold Offset Overrun Length
08L 148 ft / 45 m 8,377 ft / 2,553 m 77.69° 78.04° Asphalt 1,053 ft / 321 m 0 ft / 0 m
08R 148 ft / 45 m 10,341 ft / 3,152 m 77.59° 77.94° Asphalt 1,289 ft / 393 m 0 ft / 0 m
26L 148 ft / 45 m 10,341 ft / 3,152 m 257.63° 257.98° Asphalt 879 ft / 268 m 600 ft / 183 m
26R 148 ft / 45 m 8,377 ft / 2,553 m 257.71° 258.06° Asphalt 1,365 ft / 416 m 0 ft / 0 m

Approach Navaids

Runway Type Ident Frequency Range Bearing (true) Bearing (mag) Slope Elevation
08R Localiser IGG 110.90 MHz 18 nm / 33 km 77.66° 78.01° - 196 ft / 60 m (AMSL)
08R Glidescope IGG 110.90 MHz 10 nm / 19 km 77.61° 77.96° 3.00° 196 ft / 60 m (AMSL)
08R DME IGG 110.90 MHz 18 nm / 33 km - - - 274 ft / 84 m (AMSL)
26L Localiser IWW 110.90 MHz 18 nm / 33 km 257.42° 257.76° - 196 ft / 60 m (AMSL)
26L Glidescope IWW 110.90 MHz 10 nm / 19 km 257.61° 257.96° 3.00° 196 ft / 60 m (AMSL)
26L DME IWW 110.90 MHz 18 nm / 33 km - - - 274 ft / 84 m (AMSL)

Popular Alternatives